Time;durP1;ratioP1;P1;durP2;ratioP2;P2;SDS_P1;SDS_P2;PMS_P1;PMS_P2;Temp;Humidity;BMP_temperature;BMP_pressure;BME280_temperature;BME280_humidity;BME280_pressure;Samples;Min_cycle;Max_cycle;Signal;HPM_P1;HPM_P2
2022/03/03 00:01:31;;;;;;;20.23;14.30;;;1.70;99.90;;;;;;5071638;28;20252;-63
2022/03/03 00:03:57;;;;;;;18.90;14.50;;;1.60;99.90;;;;;;5065656;28;20597;-65
2022/03/03 00:06:23;;;;;;;21.80;15.20;;;1.60;99.90;;;;;;5067625;28;20737;-63
2022/03/03 00:08:48;;;;;;;23.60;13.63;;;1.70;99.90;;;;;;5069560;28;20212;-65
2022/03/03 00:11:14;;;;;;;16.20;13.53;;;1.60;99.90;;;;;;5070605;28;20185;-64
2022/03/03 00:13:40;;;;;;;18.80;14.13;;;1.70;99.90;;;;;;5058842;28;20193;-64
2022/03/03 00:16:05;;;;;;;16.43;12.73;;;1.50;99.90;;;;;;5071637;28;20192;-63
2022/03/03 00:18:31;;;;;;;16.67;14.30;;;1.70;99.90;;;;;;5069981;28;20187;-65
2022/03/03 00:20:57;;;;;;;18.47;12.73;;;1.60;99.90;;;;;;5064544;28;20431;-63
2022/03/03 00:23:22;;;;;;;21.00;14.20;;;1.60;99.90;;;;;;5056966;28;20358;-62
2022/03/03 00:25:48;;;;;;;18.13;14.10;;;1.40;99.90;;;;;;5069953;28;20268;-63
2022/03/03 00:28:14;;;;;;;20.63;13.97;;;1.40;99.90;;;;;;5050012;28;20319;-67
2022/03/03 00:30:39;;;;;;;16.77;13.03;;;0.70;99.90;;;;;;5048115;28;21107;-64
2022/03/03 00:33:05;;;;;;;17.03;12.67;;;1.60;99.90;;;;;;5066434;28;20462;-63
2022/03/03 00:35:31;;;;;;;23.30;14.60;;;1.10;99.90;;;;;;5066010;28;20216;-63
2022/03/03 00:37:57;;;;;;;14.68;12.70;;;1.90;99.90;;;;;;5062097;28;20626;-64
2022/03/03 00:40:22;;;;;;;17.83;12.77;;;1.30;99.90;;;;;;5068777;28;20272;-64
2022/03/03 00:42:48;;;;;;;15.37;12.57;;;1.70;99.90;;;;;;5064464;28;20214;-65
2022/03/03 00:45:13;;;;;;;16.73;13.30;;;1.30;99.90;;;;;;5065012;28;20195;-63
2022/03/03 00:47:39;;;;;;;17.30;12.90;;;1.10;99.90;;;;;;5063433;28;20264;-64
2022/03/03 00:50:06;;;;;;;17.93;12.60;;;1.60;99.90;;;;;;5063559;28;20592;-64
2022/03/03 00:52:32;;;;;;;17.55;12.73;;;1.30;99.90;;;;;;5069613;28;20463;-63
2022/03/03 00:54:58;;;;;;;17.67;12.33;;;1.50;99.90;;;;;;5071312;28;20213;-63
2022/03/03 00:57:23;;;;;;;16.43;13.00;;;0.90;99.90;;;;;;5068339;28;20268;-64
2022/03/03 00:59:49;;;;;;;17.70;12.63;;;1.50;99.90;;;;;;5058559;28;20917;-62
2022/03/03 01:02:15;;;;;;;17.00;13.80;;;1.30;99.90;;;;;;5070939;28;20196;-61
2022/03/03 01:04:40;;;;;;;21.43;13.80;;;1.30;99.90;;;;;;5063048;28;20272;-65
2022/03/03 01:07:06;;;;;;;19.87;13.27;;;1.20;99.90;;;;;;5062284;28;20523;-65
2022/03/03 01:09:32;;;;;;;13.43;12.03;;;1.40;99.90;;;;;;5068157;28;20561;-64
2022/03/03 01:11:57;;;;;;;16.57;12.93;;;1.40;99.90;;;;;;5063125;28;20455;-63
2022/03/03 01:14:24;;;;;;;17.80;13.67;;;1.20;99.90;;;;;;5059706;28;20202;-63
2022/03/03 01:16:50;;;;;;;16.38;12.88;;;0.60;99.90;;;;;;5074106;28;20528;-63
2022/03/03 01:19:17;;;;;;;17.55;12.50;;;1.00;99.90;;;;;;5066165;28;20173;-63
2022/03/03 01:21:42;;;;;;;16.92;13.63;;;1.70;99.90;;;;;;5070452;28;20209;-63
2022/03/03 01:24:08;;;;;;;19.50;13.60;;;1.10;99.90;;;;;;5069305;28;20193;-64
2022/03/03 01:26:34;;;;;;;17.47;13.00;;;1.20;99.90;;;;;;5067653;28;20189;-65
2022/03/03 01:28:59;;;;;;;15.87;13.80;;;0.60;99.90;;;;;;5060412;28;20656;-63
2022/03/03 01:31:25;;;;;;;17.77;13.27;;;1.10;99.90;;;;;;5067145;28;20189;-63
2022/03/03 01:33:50;;;;;;;21.30;14.40;;;1.20;99.90;;;;;;5065417;28;20789;-62
2022/03/03 01:36:16;;;;;;;17.10;13.73;;;1.10;99.90;;;;;;5066328;28;20181;-63
2022/03/03 01:38:42;;;;;;;20.13;14.30;;;1.10;99.90;;;;;;5067810;28;20606;-65
2022/03/03 01:41:08;;;;;;;15.00;12.30;;;1.20;99.90;;;;;;5065965;28;20263;-65
2022/03/03 01:43:34;;;;;;;17.27;13.10;;;1.30;99.90;;;;;;5062520;28;20181;-64
2022/03/03 01:46:00;;;;;;;18.75;12.73;;;0.50;99.90;;;;;;5069891;28;20185;-62
2022/03/03 01:48:26;;;;;;;17.40;14.10;;;1.10;99.90;;;;;;5066711;28;20258;-63
2022/03/03 01:50:52;;;;;;;18.90;14.30;;;1.00;99.90;;;;;;5063164;28;20194;-63
2022/03/03 01:53:18;;;;;;;15.63;12.73;;;1.20;99.90;;;;;;5065345;28;20296;-63
2022/03/03 01:55:44;;;;;;;19.58;12.98;;;0.90;99.90;;;;;;5069654;28;20209;-62
2022/03/03 01:58:10;;;;;;;18.88;13.13;;;0.80;99.90;;;;;;5060890;28;20259;-63
2022/03/03 02:00:36;;;;;;;16.00;12.80;;;1.00;99.90;;;;;;5065760;28;20213;-64
2022/03/03 02:03:01;;;;;;;18.17;14.10;;;0.80;99.90;;;;;;5064383;28;20280;-64
2022/03/03 02:05:28;;;;;;;16.13;12.90;;;0.90;99.90;;;;;;5058608;28;20556;-61
2022/03/03 02:07:54;;;;;;;23.33;14.40;;;0.80;99.90;;;;;;5067070;28;20181;-62
2022/03/03 02:10:19;;;;;;;18.97;13.90;;;1.00;99.90;;;;;;5057499;28;20201;-65
2022/03/03 02:12:45;;;;;;;17.83;14.00;;;1.50;99.90;;;;;;5060502;28;20213;-65
2022/03/03 02:15:19;;;;;;;18.37;13.17;;;1.20;99.90;;;;;;5066089;28;20646;-62
2022/03/03 02:17:44;;;;;;;17.30;14.23;;;1.00;99.90;;;;;;5062686;28;20273;-62
2022/03/03 02:20:30;;;;;;;15.77;13.60;;;1.20;99.90;;;;;;5059363;28;20264;-64
2022/03/03 02:22:57;;;;;;;18.80;13.73;;;1.60;99.90;;;;;;5071355;28;20216;-62
2022/03/03 02:25:25;;;;;;;19.75;13.43;;;1.30;99.90;;;;;;5053658;28;20184;-62
2022/03/03 02:27:50;;;;;;;17.85;13.23;;;1.10;99.90;;;;;;5064553;28;20189;-60
2022/03/03 02:30:18;;;;;;;16.00;12.90;;;1.10;99.90;;;;;;5056028;28;20197;-60
2022/03/03 02:32:45;;;;;;;19.75;14.73;;;0.60;99.90;;;;;;5063895;28;20228;-60
2022/03/03 02:35:11;;;;;;;16.90;13.50;;;1.00;99.90;;;;;;5062503;28;20832;-61
2022/03/03 02:37:42;;;;;;;17.45;13.25;;;0.40;99.90;;;;;;5067265;28;20484;-61
2022/03/03 02:40:11;;;;;;;21.95;13.93;;;0.80;99.90;;;;;;5065374;28;20230;-61
2022/03/03 02:42:37;;;;;;;19.13;13.68;;;1.00;99.90;;;;;;5067802;28;20270;-62
2022/03/03 02:45:04;;;;;;;16.60;13.63;;;0.90;99.90;;;;;;5065632;28;20563;-61
2022/03/03 02:47:31;;;;;;;20.00;15.07;;;1.00;99.90;;;;;;5051990;28;20185;-62
2022/03/03 02:49:57;;;;;;;18.05;12.80;;;1.30;99.90;;;;;;5063834;28;20226;-60
2022/03/03 02:52:23;;;;;;;17.73;13.73;;;0.80;99.90;;;;;;5066771;28;20208;-60
2022/03/03 02:54:49;;;;;;;16.55;13.20;;;0.70;99.90;;;;;;5069225;28;20292;-60
2022/03/03 02:59:59;;;;;;;19.55;14.38;;;1.10;99.90;;;;;;5058673;28;20212;-61
2022/03/03 03:02:25;;;;;;;21.80;13.80;;;0.60;99.90;;;;;;5064055;28;20232;-61
2022/03/03 03:04:51;;;;;;;17.07;14.03;;;0.70;99.90;;;;;;5059953;28;20852;-60
2022/03/03 03:07:16;;;;;;;15.70;13.57;;;0.90;99.90;;;;;;5054994;28;20308;-61
2022/03/03 03:09:42;;;;;;;16.93;13.27;;;0.60;99.90;;;;;;5067652;28;20189;-60
2022/03/03 03:12:08;;;;;;;25.73;14.80;;;0.90;99.90;;;;;;5065669;28;20217;-61
2022/03/03 03:14:34;;;;;;;17.75;13.50;;;0.60;99.90;;;;;;5057816;28;20205;-61
2022/03/03 03:17:00;;;;;;;17.33;13.93;;;0.40;99.90;;;;;;5063510;28;20187;-61
2022/03/03 03:19:26;;;;;;;18.90;13.80;;;0.50;99.90;;;;;;5059586;28;20450;-61
2022/03/03 03:21:51;;;;;;;19.77;13.23;;;0.70;99.90;;;;;;5071456;28;20201;-61
2022/03/03 03:24:17;;;;;;;16.53;13.80;;;0.60;99.90;;;;;;5071068;28;20185;-60
2022/03/03 03:26:43;;;;;;;25.00;14.30;;;0.10;99.90;;;;;;5070637;28;20730;-61
2022/03/03 03:29:09;;;;;;;20.17;13.70;;;0.50;99.90;;;;;;5062084;28;20843;-62
2022/03/03 03:31:34;;;;;;;22.00;14.07;;;0.00;99.90;;;;;;5070693;28;20209;-62
2022/03/03 03:34:00;;;;;;;20.43;14.10;;;0.60;99.90;;;;;;5066372;28;20471;-60
2022/03/03 03:36:26;;;;;;;18.30;13.47;;;0.40;99.90;;;;;;5070940;28;20446;-59
2022/03/03 03:38:53;;;;;;;22.53;15.00;;;-0.30;99.90;;;;;;5068693;28;20185;-61
2022/03/03 03:41:19;;;;;;;20.80;14.65;;;0.50;99.90;;;;;;5069036;28;20193;-61
2022/03/03 03:43:44;;;;;;;18.83;14.00;;;0.50;99.90;;;;;;5063450;28;20526;-61
2022/03/03 03:46:10;;;;;;;19.40;14.03;;;0.40;99.90;;;;;;5071196;28;20995;-61
2022/03/03 03:48:35;;;;;;;18.13;13.43;;;0.30;99.90;;;;;;5050010;28;20201;-60
2022/03/03 03:51:01;;;;;;;17.40;14.90;;;0.30;99.90;;;;;;5066960;28;20173;-60
2022/03/03 03:53:27;;;;;;;20.10;15.07;;;0.50;99.90;;;;;;5070055;28;20648;-61
2022/03/03 03:55:52;;;;;;;20.87;13.97;;;0.20;99.90;;;;;;5070583;28;20709;-63
2022/03/03 03:58:18;;;;;;;21.63;14.73;;;0.40;99.90;;;;;;5069251;28;20241;-60
2022/03/03 04:00:44;;;;;;;19.08;14.63;;;0.40;99.90;;;;;;5053965;28;20177;-60
2022/03/03 04:03:10;;;;;;;17.73;13.80;;;0.20;99.90;;;;;;5068934;28;20193;-60
2022/03/03 04:05:35;;;;;;;19.97;14.60;;;0.40;99.90;;;;;;5059199;28;20449;-61
2022/03/03 04:08:02;;;;;;;18.60;13.50;;;-0.40;99.90;;;;;;5069695;28;20181;-60
2022/03/03 04:10:28;;;;;;;21.75;14.80;;;0.20;99.90;;;;;;5053887;28;20720;-61
2022/03/03 04:12:55;;;;;;;18.33;14.15;;;0.10;99.90;;;;;;5059046;28;20668;-61
2022/03/03 04:15:22;;;;;;;18.70;14.55;;;0.20;99.90;;;;;;5070351;28;20697;-61
2022/03/03 04:17:48;;;;;;;20.80;15.00;;;0.30;99.90;;;;;;5070075;28;20216;-62
2022/03/03 04:20:14;;;;;;;21.45;15.18;;;0.20;99.90;;;;;;5065344;28;20177;-61
2022/03/03 04:22:41;;;;;;;24.02;15.82;;;0.20;99.90;;;;;;5063932;28;20213;-61
2022/03/03 04:25:10;;;;;;;23.23;14.73;;;0.30;99.90;;;;;;5064251;28;20599;-59
2022/03/03 04:27:37;;;;;;;18.92;15.18;;;0.30;99.90;;;;;;5071309;28;20194;-61
2022/03/03 04:30:05;;;;;;;20.67;15.23;;;0.30;99.90;;;;;;5058011;28;20196;-62
2022/03/03 04:32:30;;;;;;;20.75;17.38;;;0.10;99.90;;;;;;5070771;28;20200;-61
2022/03/03 04:34:56;;;;;;;23.30;16.30;;;0.10;99.90;;;;;;5064243;28;20208;-61
2022/03/03 04:37:21;;;;;;;22.40;14.70;;;0.30;99.90;;;;;;5069480;28;20195;-61
2022/03/03 04:39:47;;;;;;;18.50;14.63;;;0.00;99.90;;;;;;5070369;28;20215;-60
2022/03/03 04:42:13;;;;;;;20.47;14.57;;;-0.40;99.90;;;;;;5059522;28;20205;-59
2022/03/03 04:44:39;;;;;;;20.47;14.90;;;0.20;99.90;;;;;;5057284;28;20177;-61
2022/03/03 04:47:04;;;;;;;21.10;14.20;;;0.30;99.90;;;;;;5068442;28;20453;-61
2022/03/03 04:49:30;;;;;;;21.03;15.53;;;0.40;99.90;;;;;;5057679;28;20192;-61
2022/03/03 04:51:56;;;;;;;20.20;15.13;;;0.30;99.90;;;;;;5045672;28;20205;-61
2022/03/03 04:54:21;;;;;;;19.23;14.47;;;0.30;99.90;;;;;;5067092;28;20570;-60
2022/03/03 04:56:47;;;;;;;19.87;15.13;;;0.80;99.90;;;;;;5070291;28;20192;-60
2022/03/03 04:59:13;;;;;;;19.07;14.30;;;0.40;99.90;;;;;;5046396;28;20193;-61
2022/03/03 05:01:38;;;;;;;22.47;16.50;;;0.60;99.90;;;;;;5064691;28;20212;-62
2022/03/03 05:04:04;;;;;;;21.27;15.23;;;0.20;99.90;;;;;;5065862;28;20904;-59
2022/03/03 05:06:30;;;;;;;22.75;16.15;;;0.30;99.90;;;;;;5058415;28;20939;-61
2022/03/03 05:08:56;;;;;;;21.93;15.53;;;0.40;99.90;;;;;;5067290;28;20185;-61
2022/03/03 05:11:22;;;;;;;21.40;15.60;;;0.50;99.90;;;;;;5067544;28;20189;-60
2022/03/03 05:13:48;;;;;;;21.60;16.50;;;-0.10;99.90;;;;;;5064678;28;20700;-61
2022/03/03 05:16:14;;;;;;;23.45;15.85;;;0.40;99.90;;;;;;5066890;28;20447;-60
2022/03/03 05:18:39;;;;;;;21.03;15.43;;;0.10;99.90;;;;;;5066393;28;20211;-60
2022/03/03 05:21:05;;;;;;;20.97;15.67;;;0.60;99.90;;;;;;5058976;28;20799;-61
2022/03/03 05:23:31;;;;;;;22.80;15.00;;;-0.10;99.90;;;;;;5066732;28;20664;-60
2022/03/03 05:25:56;;;;;;;22.80;15.57;;;0.60;99.90;;;;;;5051648;28;20576;-60
2022/03/03 05:28:22;;;;;;;23.87;15.80;;;0.30;99.90;;;;;;5065152;28;20185;-60
2022/03/03 05:30:47;;;;;;;22.57;15.50;;;0.30;99.90;;;;;;5062318;28;20643;-60
2022/03/03 05:33:13;;;;;;;24.50;16.40;;;0.40;99.90;;;;;;5065021;28;20206;-60
2022/03/03 05:35:40;;;;;;;24.50;16.40;;;0.90;99.90;;;;;;5041884;28;20205;-59
2022/03/03 05:38:06;;;;;;;24.40;16.30;;;0.30;99.90;;;;;;5063573;28;20181;-59
2022/03/03 05:40:32;;;;;;;23.03;16.30;;;0.80;99.90;;;;;;5051688;28;20521;-61
2022/03/03 05:42:58;;;;;;;20.50;15.90;;;0.70;99.90;;;;;;5060980;28;20980;-62
2022/03/03 05:45:24;;;;;;;20.83;15.30;;;1.00;99.90;;;;;;5069659;28;20210;-61
2022/03/03 05:47:52;;;;;;;17.40;14.88;;;0.60;99.90;;;;;;5064141;28;20447;-59
2022/03/03 05:50:17;;;;;;;19.23;15.68;;;0.70;99.90;;;;;;5058171;28;20192;-60
2022/03/03 05:52:43;;;;;;;25.70;16.93;;;0.00;99.90;;;;;;5065941;28;20263;-60
2022/03/03 05:55:09;;;;;;;22.23;16.03;;;0.40;99.90;;;;;;5065454;28;20201;-61
2022/03/03 05:57:48;;;;;;;20.70;15.50;;;0.30;99.90;;;;;;5061258;28;20602;-60
2022/03/03 06:00:16;;;;;;;21.27;15.50;;;0.30;99.90;;;;;;5065453;28;20439;-59
2022/03/03 06:02:51;;;;;;;21.52;16.65;;;0.40;99.90;;;;;;5065562;28;20875;-60
2022/03/03 06:05:19;;;;;;;22.98;16.15;;;0.30;99.90;;;;;;5060768;28;20189;-60
2022/03/03 06:07:51;;;;;;;23.92;17.92;;;0.50;99.90;;;;;;5063865;28;20190;-60
2022/03/03 06:10:23;;;;;;;22.63;17.27;;;0.50;99.90;;;;;;5066281;28;20637;-60
2022/03/03 06:13:03;;;;;;;18.92;14.68;;;0.40;99.90;;;;;;5066988;28;20554;-59
2022/03/03 06:15:29;;;;;;;17.92;14.07;;;0.70;99.90;;;;;;5046934;28;20295;-60
2022/03/03 06:17:55;;;;;;;24.80;16.75;;;0.40;99.90;;;;;;5069027;28;20188;-61
2022/03/03 06:20:23;;;;;;;22.48;15.23;;;0.40;99.90;;;;;;5061125;28;20177;-60
2022/03/03 06:22:49;;;;;;;20.75;16.25;;;0.60;99.90;;;;;;5066131;28;20232;-61
2022/03/03 06:25:14;;;;;;;22.93;16.33;;;0.50;99.90;;;;;;5067081;28;20708;-61
2022/03/03 06:27:40;;;;;;;20.30;14.90;;;0.80;99.90;;;;;;5069397;28;20581;-61
2022/03/03 06:30:06;;;;;;;26.40;17.97;;;0.20;99.90;;;;;;5045595;28;20185;-59
2022/03/03 06:32:32;;;;;;;18.48;16.02;;;0.40;99.90;;;;;;5041389;28;20244;-61
2022/03/03 06:34:58;;;;;;;24.70;15.97;;;0.70;99.90;;;;;;5054655;28;20286;-61
2022/03/03 06:37:24;;;;;;;23.70;16.30;;;0.00;99.90;;;;;;5038341;28;20248;-67
2022/03/03 06:39:49;;;;;;;22.43;16.60;;;0.30;99.90;;;;;;5058401;28;20859;-64
2022/03/03 06:42:15;;;;;;;22.97;17.10;;;0.30;99.90;;;;;;5067941;28;20196;-63
2022/03/03 06:44:40;;;;;;;23.73;16.67;;;0.30;99.90;;;;;;5064685;28;20185;-64
2022/03/03 06:47:06;;;;;;;26.20;16.57;;;0.00;99.90;;;;;;5063652;28;20315;-67
2022/03/03 06:49:32;;;;;;;23.00;16.40;;;0.70;99.90;;;;;;5056031;28;20184;-66
2022/03/03 06:52:01;;;;;;;20.53;15.40;;;0.60;99.90;;;;;;5069116;28;20210;-65
2022/03/03 06:54:26;;;;;;;21.38;14.80;;;0.70;99.90;;;;;;5067894;28;20583;-64
2022/03/03 06:56:53;;;;;;;21.03;15.60;;;0.80;99.90;;;;;;5048801;28;20275;-67
2022/03/03 06:59:25;;;;;;;24.48;17.02;;;1.10;99.90;;;;;;5062017;28;20242;-66
2022/03/03 07:01:52;;;;;;;27.33;17.77;;;1.10;99.90;;;;;;5073561;28;20245;-67
2022/03/03 07:04:19;;;;;;;24.27;16.58;;;1.10;99.90;;;;;;5065985;28;20189;-67
2022/03/03 07:06:45;;;;;;;20.75;15.38;;;1.50;99.90;;;;;;5069847;28;20678;-67
2022/03/03 07:09:11;;;;;;;26.70;18.05;;;0.90;99.90;;;;;;5064038;28;20212;-65
2022/03/03 07:11:40;;;;;;;25.35;17.63;;;1.10;99.90;;;;;;5072064;28;20217;-67
2022/03/03 07:14:05;;;;;;;29.10;18.05;;;0.90;99.90;;;;;;5066814;28;20251;-65
2022/03/03 07:16:49;;;;;;;27.10;17.47;;;0.90;99.90;;;;;;5066510;28;20213;-67
2022/03/03 07:19:21;;;;;;;25.15;17.70;;;1.40;99.90;;;;;;5065863;28;20467;-67
2022/03/03 07:22:07;;;;;;;22.90;16.20;;;1.30;99.90;;;;;;5052970;28;20215;-66
2022/03/03 07:24:40;;;;;;;27.25;18.30;;;1.50;99.90;;;;;;5056890;28;20681;-66
2022/03/03 07:27:12;;;;;;;29.25;17.35;;;1.80;99.90;;;;;;5055668;28;21120;-63
2022/03/03 07:29:39;;;;;;;23.45;17.25;;;2.30;99.90;;;;;;5068212;28;20242;-66
2022/03/03 07:32:07;;;;;;;22.08;16.90;;;2.10;99.90;;;;;;5063905;28;20210;-66
2022/03/03 07:34:35;;;;;;;20.58;15.85;;;2.30;99.90;;;;;;5064972;28;20224;-66
2022/03/03 07:37:07;;;;;;;21.25;17.27;;;2.10;99.90;;;;;;5066315;28;20176;-66
2022/03/03 07:39:42;;;;;;;24.30;16.88;;;2.20;99.90;;;;;;5062837;28;20192;-64
2022/03/03 07:42:18;;;;;;;23.05;17.80;;;3.20;99.90;;;;;;5069398;28;20566;-63
2022/03/03 07:44:48;;;;;;;22.20;17.13;;;2.60;99.30;;;;;;5062609;28;20677;-64
2022/03/03 07:47:14;;;;;;;23.10;17.75;;;3.30;99.30;;;;;;5069809;28;20177;-64
2022/03/03 07:49:40;;;;;;;22.37;17.57;;;3.30;99.40;;;;;;5062225;28;20226;-59
2022/03/03 07:52:07;;;;;;;23.95;17.75;;;3.40;99.30;;;;;;5070981;28;20524;-62
2022/03/03 07:54:33;;;;;;;24.10;17.60;;;3.40;99.10;;;;;;5063265;28;20209;-63
2022/03/03 07:57:01;;;;;;;26.67;17.73;;;3.40;98.70;;;;;;5062160;28;20598;-62
2022/03/03 07:59:32;;;;;;;23.55;18.75;;;3.60;98.50;;;;;;5069740;28;20643;-64
2022/03/03 08:02:00;;;;;;;24.23;18.25;;;3.10;98.30;;;;;;5072736;28;20248;-62
2022/03/03 08:04:32;;;;;;;24.10;17.60;;;2.90;98.60;;;;;;5065652;28;20189;-65
2022/03/03 08:07:04;;;;;;;22.63;17.40;;;3.40;98.90;;;;;;5070870;28;20182;-60
2022/03/03 08:09:32;;;;;;;25.38;18.23;;;4.00;98.70;;;;;;5063202;28;20250;-62
2022/03/03 08:12:02;;;;;;;25.50;19.10;;;3.50;97.90;;;;;;5068351;28;20236;-62
2022/03/03 08:14:30;;;;;;;26.20;17.90;;;3.70;97.90;;;;;;5063632;28;20293;-62
2022/03/03 08:16:55;;;;;;;24.40;18.58;;;3.70;97.50;;;;;;5071594;28;20230;-62
2022/03/03 08:19:22;;;;;;;25.90;19.40;;;3.90;98.10;;;;;;5052514;28;20177;-63
2022/03/03 08:21:48;;;;;;;22.35;18.02;;;3.80;97.50;;;;;;5059182;28;20697;-61
2022/03/03 08:24:15;;;;;;;23.25;19.00;;;4.50;97.40;;;;;;5068432;28;20193;-61
2022/03/03 08:26:42;;;;;;;23.73;19.90;;;3.80;98.90;;;;;;5062271;28;20174;-60
2022/03/03 08:29:09;;;;;;;23.38;18.90;;;4.90;98.40;;;;;;5059783;28;20186;-60
2022/03/03 08:31:40;;;;;;;23.42;18.90;;;4.10;97.00;;;;;;5064766;28;20604;-60
2022/03/03 08:34:39;;;;;;;22.70;18.40;;;4.80;96.20;;;;;;5067149;28;20211;-62
2022/03/03 08:37:11;;;;;;;24.00;19.02;;;4.70;95.60;;;;;;5070363;28;20208;-62
2022/03/03 08:39:38;;;;;;;24.52;19.52;;;5.10;95.00;;;;;;5058294;28;20182;-64
2022/03/03 08:42:08;;;;;;;24.35;19.83;;;5.60;94.60;;;;;;5069156;28;20191;-67
2022/03/03 08:44:36;;;;;;;25.58;19.90;;;5.30;94.20;;;;;;5070775;28;20181;-65
2022/03/03 08:47:05;;;;;;;26.60;18.38;;;6.30;93.20;;;;;;5063482;28;20301;-64
2022/03/03 08:49:40;;;;;;;23.17;18.55;;;8.00;89.90;;;;;;5055946;28;20272;-65
2022/03/03 08:52:07;;;;;;;27.60;17.45;;;9.70;82.80;;;;;;5066241;28;20208;-63
2022/03/03 08:54:33;;;;;;;26.05;17.85;;;11.20;73.60;;;;;;5067739;28;20210;-64
2022/03/03 08:56:59;;;;;;;24.33;19.73;;;12.50;68.20;;;;;;5070619;28;20203;-62
2022/03/03 08:59:25;;;;;;;25.23;19.92;;;12.70;65.50;;;;;;5064595;28;20546;-62
2022/03/03 09:01:51;;;;;;;30.67;19.90;;;12.70;63.30;;;;;;5069199;28;20200;-62
2022/03/03 09:04:18;;;;;;;24.42;19.17;;;13.20;63.40;;;;;;5064671;28;20291;-62
2022/03/03 09:06:44;;;;;;;25.50;19.10;;;12.20;62.30;;;;;;5068576;28;20227;-61
2022/03/03 09:09:11;;;;;;;24.38;20.65;;;13.00;62.70;;;;;;5055166;28;20186;-63
2022/03/03 09:11:36;;;;;;;26.20;20.05;;;12.60;61.30;;;;;;5070124;28;20200;-63
2022/03/03 09:14:02;;;;;;;25.43;20.10;;;12.70;62.80;;;;;;5069703;28;20173;-63
2022/03/03 09:16:28;;;;;;;23.03;18.90;;;12.00;62.60;;;;;;5064943;28;20217;-58
2022/03/03 09:18:53;;;;;;;22.30;19.93;;;12.00;63.20;;;;;;5055009;28;20671;-58
2022/03/03 09:21:19;;;;;;;22.20;19.80;;;12.20;62.20;;;;;;5047468;28;20665;-60
2022/03/03 09:23:45;;;;;;;24.30;19.40;;;12.60;61.20;;;;;;5067564;28;20207;-59
2022/03/03 09:26:10;;;;;;;27.50;18.77;;;12.80;60.10;;;;;;5064571;28;20261;-64
2022/03/03 09:28:37;;;;;;;24.53;19.27;;;12.80;59.50;;;;;;5057459;28;20184;-61
2022/03/03 09:31:02;;;;;;;32.42;23.90;;;12.60;60.00;;;;;;5070742;28;20184;-62
2022/03/03 09:33:28;;;;;;;26.27;19.70;;;12.80;61.50;;;;;;5067092;28;20197;-61
2022/03/03 09:35:54;;;;;;;31.43;22.17;;;12.80;60.70;;;;;;5064775;28;20205;-64
2022/03/03 09:38:20;;;;;;;24.30;19.53;;;12.20;60.20;;;;;;5061105;28;20519;-63
2022/03/03 09:40:48;;;;;;;29.43;21.87;;;12.90;59.90;;;;;;5065266;28;20185;-62
2022/03/03 09:43:14;;;;;;;24.60;20.17;;;14.10;58.20;;;;;;5068256;28;20459;-64
2022/03/03 09:45:40;;;;;;;22.90;20.05;;;14.90;57.00;;;;;;5060889;28;20241;-60
2022/03/03 09:48:07;;;;;;;23.87;20.47;;;16.10;54.70;;;;;;5065927;28;20220;-60
2022/03/03 09:50:38;;;;;;;23.90;20.38;;;15.20;54.50;;;;;;5054852;28;20951;-59
2022/03/03 09:53:17;;;;;;;27.75;21.23;;;15.90;53.10;;;;;;5070119;28;20291;-60
2022/03/03 09:55:44;;;;;;;23.58;21.08;;;15.40;53.90;;;;;;5068063;28;20205;-62
2022/03/03 09:58:10;;;;;;;25.08;21.20;;;16.00;53.30;;;;;;5063424;28;20188;-58
2022/03/03 10:00:40;;;;;;;25.43;21.37;;;16.30;51.90;;;;;;5063389;28;20203;-59
2022/03/03 10:03:13;;;;;;;24.40;21.95;;;15.40;51.70;;;;;;5071470;28;20561;-59
2022/03/03 10:05:47;;;;;;;24.02;21.45;;;15.20;53.00;;;;;;5050984;28;20881;-58
2022/03/03 10:08:16;;;;;;;22.95;20.55;;;15.80;51.00;;;;;;5067231;28;20869;-58
2022/03/03 10:10:44;;;;;;;26.70;21.85;;;16.60;51.00;;;;;;5068651;28;20185;-58
2022/03/03 10:13:14;;;;;;;24.63;21.60;;;17.90;49.40;;;;;;5062498;28;20211;-58
2022/03/03 10:15:40;;;;;;;24.08;21.38;;;17.30;47.60;;;;;;5049558;28;20946;-68
2022/03/03 10:18:12;;;;;;;21.90;19.70;;;18.00;47.60;;;;;;5063780;28;20191;-65
2022/03/03 10:20:51;;;;;;;22.48;20.02;;;17.00;47.60;;;;;;5066383;28;20266;-66
2022/03/03 10:23:22;;;;;;;24.70;21.08;;;16.70;47.90;;;;;;5064258;28;20215;-64
2022/03/03 10:25:48;;;;;;;23.67;21.17;;;17.40;47.00;;;;;;5053717;28;20186;-63
2022/03/03 10:28:23;;;;;;;22.97;20.53;;;17.60;47.40;;;;;;5066120;28;20193;-64
2022/03/03 10:30:58;;;;;;;23.48;20.27;;;17.70;46.30;;;;;;5063040;28;20684;-64
2022/03/03 10:33:26;;;;;;;24.13;21.13;;;17.30;47.30;;;;;;5065602;28;20298;-64
2022/03/03 10:36:23;;;;;;;23.13;20.63;;;16.40;47.20;;;;;;5059154;28;20209;-63
2022/03/03 10:38:55;;;;;;;23.17;20.67;;;15.50;49.50;;;;;;5063428;28;20184;-64
2022/03/03 10:41:36;;;;;;;22.67;19.77;;;15.00;50.60;;;;;;5061610;28;20185;-65
2022/03/03 10:44:06;;;;;;;24.77;20.75;;;14.70;50.90;;;;;;5053081;28;20184;-62
2022/03/03 10:46:33;;;;;;;25.83;20.83;;;14.70;49.50;;;;;;5066123;28;20180;-65
2022/03/03 10:48:58;;;;;;;20.42;17.75;;;15.10;50.80;;;;;;5041608;28;20543;-63
2022/03/03 10:51:24;;;;;;;21.43;19.10;;;14.50;49.30;;;;;;5064541;28;20181;-64
2022/03/03 10:53:55;;;;;;;21.13;19.07;;;15.40;49.80;;;;;;5068463;28;20196;-65
2022/03/03 10:56:21;;;;;;;22.48;19.38;;;14.40;50.10;;;;;;5068261;28;20975;-63
2022/03/03 10:58:48;;;;;;;21.50;18.67;;;14.40;50.10;;;;;;5074274;28;20215;-63
2022/03/03 11:01:16;;;;;;;19.70;17.70;;;13.90;50.50;;;;;;5067926;28;20546;-64
2022/03/03 11:03:49;;;;;;;23.23;19.33;;;14.10;51.10;;;;;;5069211;28;20203;-67
2022/03/03 11:06:16;;;;;;;21.08;18.50;;;14.40;51.30;;;;;;5064381;28;20227;-64
2022/03/03 11:08:42;;;;;;;22.33;18.38;;;15.00;50.10;;;;;;5073993;28;20186;-62
2022/03/03 11:11:08;;;;;;;21.00;17.83;;;15.90;49.20;;;;;;5068228;28;20177;-66
2022/03/03 11:13:35;;;;;;;19.35;17.05;;;15.20;48.70;;;;;;5064158;28;20651;-63
2022/03/03 11:16:02;;;;;;;20.83;18.25;;;16.10;47.30;;;;;;5062472;28;20224;-62
2022/03/03 11:18:28;;;;;;;20.75;18.38;;;15.60;47.70;;;;;;5065675;28;20689;-63
2022/03/03 11:20:54;;;;;;;21.25;17.80;;;15.70;47.50;;;;;;5049137;28;20181;-63
2022/03/03 11:23:21;;;;;;;21.83;19.17;;;16.80;46.30;;;;;;5053698;28;20218;-63
2022/03/03 11:25:49;;;;;;;20.35;18.25;;;18.00;44.80;;;;;;5064114;28;20181;-63
2022/03/03 11:28:15;;;;;;;21.58;19.30;;;18.10;44.60;;;;;;5046549;28;20189;-65
2022/03/03 11:30:45;;;;;;;20.15;17.95;;;18.80;43.50;;;;;;5060649;28;20189;-64
2022/03/03 11:33:24;;;;;;;22.25;20.05;;;18.40;43.00;;;;;;5056797;28;20209;-64
2022/03/03 11:35:52;;;;;;;21.95;19.65;;;17.70;43.50;;;;;;5045789;28;20686;-64
2022/03/03 11:38:19;;;;;;;21.48;19.17;;;16.10;44.10;;;;;;5066785;28;20181;-63
2022/03/03 11:40:57;;;;;;;20.10;17.90;;;15.00;46.40;;;;;;5068322;28;20601;-65
2022/03/03 11:43:24;;;;;;;19.98;17.88;;;15.10;47.60;;;;;;5054494;28;20204;-64
2022/03/03 11:45:52;;;;;;;21.70;18.90;;;14.80;47.00;;;;;;5068176;28;20625;-63
2022/03/03 11:48:22;;;;;;;18.50;16.50;;;14.10;47.50;;;;;;5067829;28;20196;-64
2022/03/03 11:50:53;;;;;;;21.67;18.05;;;14.60;47.00;;;;;;5056591;28;20671;-64
2022/03/03 11:53:22;;;;;;;20.10;17.80;;;15.00;47.30;;;;;;5065584;28;20238;-65
2022/03/03 11:55:49;;;;;;;24.30;18.13;;;15.10;46.20;;;;;;5068177;28;20265;-63
2022/03/03 11:58:17;;;;;;;21.42;18.52;;;15.00;47.00;;;;;;5054451;28;20348;-63
2022/03/03 12:01:09;;;;;;;20.80;17.83;;;15.20;46.10;;;;;;5040958;28;20200;-63
2022/03/03 12:04:13;;;;;;;19.95;17.73;;;14.80;46.00;;;;;;5052830;28;20189;-63
2022/03/03 12:06:43;;;;;;;20.63;16.65;;;14.60;47.10;;;;;;5023142;28;20228;-63
2022/03/03 12:09:17;;;;;;;18.15;16.25;;;14.80;46.70;;;;;;5064369;28;20258;-64
2022/03/03 12:11:43;;;;;;;18.70;16.67;;;14.30;47.50;;;;;;5061013;28;20603;-64
2022/03/03 12:14:29;;;;;;;19.30;16.40;;;14.30;47.60;;;;;;5062495;28;20267;-65
2022/03/03 12:17:33;;;;;;;21.70;16.83;;;14.10;49.10;;;;;;5063203;28;20693;-64
2022/03/03 12:20:24;;;;;;;19.27;17.13;;;14.30;48.50;;;;;;5061116;28;20260;-65
2022/03/03 12:23:13;;;;;;;20.52;16.70;;;14.10;48.00;;;;;;5060142;28;20316;-64
2022/03/03 12:25:47;;;;;;;24.17;18.35;;;14.30;48.20;;;;;;5068060;28;20565;-64
2022/03/03 12:28:26;;;;;;;17.73;15.93;;;14.20;48.20;;;;;;5057958;28;20268;-65
2022/03/03 12:30:54;;;;;;;21.48;16.13;;;14.00;48.00;;;;;;5070338;28;20267;-63
2022/03/03 12:33:24;;;;;;;20.38;17.30;;;13.90;48.30;;;;;;5063025;28;20257;-64
2022/03/03 12:35:51;;;;;;;20.35;18.13;;;14.00;49.40;;;;;;5062791;28;20668;-64
2022/03/03 12:38:17;;;;;;;20.02;16.95;;;13.90;49.80;;;;;;5064298;28;20189;-64
2022/03/03 12:40:44;;;;;;;18.48;16.48;;;13.60;49.90;;;;;;5065232;28;20190;-64